createdAt,value
2019-01-18T00:00:38.724Z,10.20
2019-01-18T00:03:07.332Z,8.47
2019-01-18T00:05:35.839Z,7.97
2019-01-18T00:08:04.232Z,7.47
2019-01-18T00:10:32.391Z,9.57
2019-01-18T00:13:00.604Z,7.37
2019-01-18T00:15:28.839Z,10.43
2019-01-18T00:17:56.992Z,8.07
2019-01-18T00:20:25.567Z,7.90
2019-01-18T00:22:54.107Z,7.43
2019-01-18T00:25:22.344Z,6.97
2019-01-18T00:27:50.499Z,6.10
2019-01-18T00:30:21.342Z,8.20
2019-01-18T00:32:49.836Z,6.83
2019-01-18T00:35:17.974Z,10.63
2019-01-18T00:37:46.110Z,7.87
2019-01-18T00:40:15.417Z,6.60
2019-01-18T00:42:43.870Z,6.97
2019-01-18T00:45:17.185Z,8.30
2019-01-18T00:47:45.353Z,6.27
2019-01-18T00:50:15.009Z,6.70
2019-01-18T00:52:43.248Z,7.67
2019-01-18T00:55:12.361Z,7.53
2019-01-18T00:57:41.054Z,6.07
2019-01-18T01:00:10.831Z,8.40
2019-01-18T01:02:38.968Z,6.00
2019-01-18T01:05:07.400Z,6.40
2019-01-18T01:07:35.851Z,8.17
2019-01-18T01:10:07.586Z,7.90
2019-01-18T01:12:35.713Z,7.13
2019-01-18T01:15:05.798Z,6.57
2019-01-18T01:17:34.669Z,6.50
2019-01-18T01:20:03.418Z,7.37
2019-01-18T01:22:31.600Z,6.80
2019-01-18T01:24:59.841Z,7.40
2019-01-18T01:27:28.062Z,6.37
2019-01-18T01:29:56.874Z,9.97
2019-01-18T01:32:25.349Z,8.53
2019-01-18T01:34:53.471Z,4.57
2019-01-18T01:37:21.628Z,6.67
2019-01-18T01:39:49.776Z,7.67
2019-01-18T01:42:18.354Z,5.73
2019-01-18T01:44:46.487Z,7.77
2019-01-18T01:47:14.996Z,6.20
2019-01-18T01:49:43.569Z,6.10
2019-01-18T01:52:11.689Z,8.17
2019-01-18T01:54:40.116Z,8.20
2019-01-18T01:57:08.337Z,6.73
2019-01-18T01:59:36.513Z,8.23
2019-01-18T02:02:04.709Z,8.07
2019-01-18T02:04:33.184Z,7.97
2019-01-18T02:07:01.664Z,7.53
2019-01-18T02:09:30.138Z,9.33
2019-01-18T02:11:58.283Z,7.70
2019-01-18T02:14:26.431Z,6.80
2019-01-18T02:16:54.583Z,6.60
2019-01-18T02:19:22.752Z,7.43
2019-01-18T02:21:50.929Z,9.63
2019-01-18T02:24:19.052Z,7.90
2019-01-18T02:26:47.216Z,7.23
2019-01-18T02:29:15.715Z,7.60
2019-01-18T02:31:44.154Z,7.43
2019-01-18T02:34:12.357Z,9.77
2019-01-18T02:36:41.518Z,6.80
2019-01-18T02:39:09.985Z,4.67
2019-01-18T02:41:38.116Z,7.67
2019-01-18T02:44:06.897Z,7.27
2019-01-18T02:46:35.092Z,9.27
2019-01-18T02:49:03.313Z,8.43
2019-01-18T02:51:31.466Z,8.90
2019-01-18T02:53:59.608Z,8.20
2019-01-18T02:56:27.770Z,8.77
2019-01-18T02:58:55.913Z,5.97
2019-01-18T03:01:24.054Z,8.50
2019-01-18T03:03:52.528Z,8.80
2019-01-18T03:06:21.032Z,8.83
2019-01-18T03:08:49.198Z,8.07
2019-01-18T03:11:17.357Z,10.43
2019-01-18T03:13:45.834Z,8.53
2019-01-18T03:16:13.982Z,8.40
2019-01-18T03:18:42.209Z,10.43
2019-01-18T03:21:10.967Z,8.03
2019-01-18T03:23:39.543Z,8.30
2019-01-18T03:26:07.759Z,10.83
2019-01-18T03:28:35.933Z,9.43
2019-01-18T03:31:04.069Z,8.80
2019-01-18T03:33:32.333Z,10.43
2019-01-18T03:36:00.557Z,9.90
2019-01-18T03:38:29.061Z,8.13
2019-01-18T03:40:57.536Z,10.60
2019-01-18T03:43:26.015Z,10.73
2019-01-18T03:45:54.495Z,10.93
2019-01-18T03:48:22.643Z,11.30
2019-01-18T03:50:50.818Z,9.87
2019-01-18T03:53:19.652Z,10.10
2019-01-18T03:55:48.623Z,9.43
2019-01-18T03:58:16.809Z,7.63
2019-01-18T04:00:44.957Z,10.10
2019-01-18T04:03:13.084Z,13.43
2019-01-18T04:05:41.257Z,10.07
2019-01-18T04:08:09.726Z,8.73
2019-01-18T04:10:38.290Z,9.10
2019-01-18T04:13:06.462Z,8.67
2019-01-18T04:15:34.663Z,8.07
2019-01-18T04:18:02.820Z,8.97
2019-01-18T04:20:30.954Z,8.37
2019-01-18T04:22:59.371Z,6.20
2019-01-18T04:25:29.175Z,9.63
2019-01-18T04:27:57.450Z,10.50
2019-01-18T04:30:33.038Z,9.43
2019-01-18T04:32:55.552Z,6.87
2019-01-18T04:35:23.850Z,5.50
2019-01-18T04:37:52.010Z,8.10
2019-01-18T04:40:24.261Z,10.23
2019-01-18T04:42:52.909Z,6.80
2019-01-18T04:45:21.111Z,10.43
2019-01-18T04:47:49.437Z,6.43
2019-01-18T04:50:18.564Z,8.60
2019-01-18T04:52:47.135Z,6.43
2019-01-18T04:55:15.396Z,7.17
2019-01-18T04:57:43.616Z,8.50
2019-01-18T05:00:13.333Z,7.20
2019-01-18T05:02:41.472Z,8.30
2019-01-18T05:05:09.904Z,7.80
2019-01-18T05:07:38.125Z,9.93
2019-01-18T05:10:19.876Z,9.47
2019-01-18T05:12:48.094Z,10.30
2019-01-18T05:15:20.082Z,6.33
2019-01-18T05:17:48.336Z,7.97
2019-01-18T05:20:17.147Z,6.27
2019-01-18T05:22:45.698Z,5.97
2019-01-18T05:25:14.119Z,8.97
2019-01-18T05:27:42.264Z,9.53
2019-01-18T05:30:14.603Z,8.93
2019-01-18T05:32:42.849Z,7.27
2019-01-18T05:35:11.390Z,7.97
2019-01-18T05:37:39.956Z,9.53
2019-01-18T05:40:10.030Z,8.77
2019-01-18T05:42:38.564Z,11.53
2019-01-18T05:45:10.923Z,7.73
2019-01-18T05:47:39.400Z,7.83
2019-01-18T05:50:13.541Z,9.07
2019-01-18T05:52:42.081Z,8.07
2019-01-18T05:55:10.696Z,8.97
2019-01-18T05:57:38.965Z,12.30
2019-01-18T06:00:11.652Z,8.67
2019-01-18T06:02:40.493Z,10.17
2019-01-18T06:05:12.641Z,10.40
2019-01-18T06:07:41.127Z,10.90
2019-01-18T06:10:09.935Z,11.90
2019-01-18T06:12:38.501Z,7.90
2019-01-18T06:15:08.741Z,10.17
2019-01-18T06:17:37.526Z,8.40
2019-01-18T06:20:09.089Z,11.50
2019-01-18T06:22:37.595Z,11.13
2019-01-18T06:25:06.304Z,10.33
2019-01-18T06:27:34.841Z,10.17
2019-01-18T06:30:04.933Z,9.80
2019-01-18T06:32:33.428Z,8.90
2019-01-18T06:35:02.202Z,11.33
2019-01-18T06:37:30.664Z,14.40
2019-01-18T06:39:59.151Z,11.80
2019-01-18T06:42:27.944Z,8.63
2019-01-18T06:44:56.440Z,8.93
2019-01-18T06:47:24.913Z,8.50
2019-01-18T06:49:53.376Z,11.07
2019-01-18T06:52:21.881Z,10.13
2019-01-18T06:54:50.351Z,10.60
2019-01-18T06:57:18.818Z,8.63
2019-01-18T06:59:47.419Z,9.20
2019-01-18T07:02:15.963Z,10.03
2019-01-18T07:04:44.776Z,8.17
2019-01-18T07:07:13.317Z,9.80
2019-01-18T07:09:41.877Z,8.70
2019-01-18T07:12:10.415Z,8.03
2019-01-18T07:14:38.896Z,9.77
2019-01-18T07:17:07.384Z,9.13
2019-01-18T07:19:35.848Z,9.20
2019-01-18T07:22:04.507Z,8.83
2019-01-18T07:24:32.993Z,12.07
2019-01-18T07:27:01.610Z,10.13
2019-01-18T07:29:30.192Z,9.70
2019-01-18T07:31:58.800Z,9.10
2019-01-18T07:34:27.295Z,9.97
2019-01-18T07:36:55.760Z,10.03
2019-01-18T07:39:24.272Z,7.53
2019-01-18T07:41:52.984Z,9.07
2019-01-18T07:44:21.490Z,7.07
2019-01-18T07:46:49.965Z,10.87
2019-01-18T07:49:18.464Z,9.70
2019-01-18T07:51:46.607Z,8.77
2019-01-18T07:54:15.100Z,9.10
2019-01-18T07:56:43.873Z,10.30
2019-01-18T07:59:12.679Z,9.73
2019-01-18T08:01:41.188Z,9.27
2019-01-18T08:04:09.319Z,10.70
2019-01-18T08:06:37.552Z,10.87
2019-01-18T08:09:07.928Z,11.73
2019-01-18T08:11:36.164Z,10.10
2019-01-18T08:14:05.655Z,9.20
2019-01-18T08:16:33.815Z,11.23
2019-01-18T08:19:02.198Z,12.57
2019-01-18T08:21:30.675Z,12.53
2019-01-18T08:23:59.121Z,9.33
2019-01-18T08:26:27.621Z,12.50
2019-01-18T08:28:55.778Z,11.33
2019-01-18T08:31:28.856Z,9.27
2019-01-18T08:33:53.817Z,13.13
2019-01-18T08:36:21.951Z,15.60
2019-01-18T08:38:50.107Z,15.63
2019-01-18T08:41:18.244Z,15.30
2019-01-18T08:43:46.407Z,13.90
2019-01-18T08:46:14.801Z,13.93
2019-01-18T08:48:43.253Z,25.03
2019-01-18T08:51:11.757Z,28.50
2019-01-18T08:53:40.493Z,29.37
2019-01-18T08:56:08.715Z,31.20
2019-01-18T08:58:37.167Z,27.07
2019-01-18T09:01:05.733Z,23.97
2019-01-18T09:03:34.209Z,32.47
2019-01-18T09:06:02.700Z,20.00
2019-01-18T09:08:30.831Z,17.20
2019-01-18T09:10:58.964Z,12.67
2019-01-18T09:13:27.690Z,16.57
2019-01-18T09:15:56.170Z,20.47
2019-01-18T09:18:24.903Z,17.87
2019-01-18T09:20:53.377Z,17.90
2019-01-18T09:23:23.405Z,14.47
2019-01-18T09:25:51.863Z,16.63
2019-01-18T09:28:20.023Z,15.37
2019-01-18T09:30:48.225Z,17.80
2019-01-18T09:33:16.440Z,16.03
2019-01-18T09:35:44.907Z,14.53
2019-01-18T09:38:17.754Z,14.70
2019-01-18T09:40:43.668Z,13.90
2019-01-18T09:43:12.215Z,14.97
2019-01-18T09:45:40.692Z,12.23
2019-01-18T09:48:09.326Z,13.40
2019-01-18T09:50:37.538Z,14.20
2019-01-18T09:53:06.674Z,17.77
2019-01-18T09:55:36.071Z,20.07
2019-01-18T09:58:04.886Z,19.40
2019-01-18T10:00:36.351Z,19.37
2019-01-18T10:03:05.205Z,17.13
2019-01-18T10:05:33.828Z,19.37
2019-01-18T10:08:02.047Z,21.27
2019-01-18T10:10:30.179Z,15.13
2019-01-18T10:12:58.729Z,18.47
2019-01-18T10:15:30.323Z,15.97
2019-01-18T10:18:00.722Z,16.97
2019-01-18T10:20:29.154Z,17.83
2019-01-18T10:22:57.883Z,20.30
2019-01-18T10:25:26.030Z,20.40
2019-01-18T10:27:54.155Z,17.83
2019-01-18T10:30:23.647Z,22.10
2019-01-18T10:32:52.140Z,18.53
2019-01-18T10:35:20.347Z,21.50
2019-01-18T10:37:48.589Z,18.10
2019-01-18T10:40:17.577Z,19.90
2019-01-18T10:42:46.396Z,18.70
2019-01-18T10:45:15.210Z,31.97
2019-01-18T10:47:44.125Z,34.37
2019-01-18T10:50:23.750Z,50.47
2019-01-18T10:52:52.629Z,59.60
2019-01-18T10:55:21.157Z,43.97
2019-01-18T10:57:49.630Z,37.47
2019-01-18T11:00:28.066Z,38.87
2019-01-18T11:02:56.305Z,80.37
2019-01-18T11:05:25.108Z,136.57
2019-01-18T11:07:53.353Z,172.20
2019-01-18T11:10:21.973Z,57.13
2019-01-18T11:12:50.499Z,82.57
2019-01-18T11:15:27.035Z,75.17
2019-01-18T11:17:55.497Z,48.10
2019-01-18T11:20:43.478Z,42.97
2019-01-18T11:23:12.328Z,30.07
2019-01-18T11:25:40.822Z,23.90
2019-01-18T11:28:09.360Z,25.17
2019-01-18T11:30:37.522Z,23.90
2019-01-18T11:33:08.377Z,16.43
2019-01-18T11:35:36.876Z,18.70
2019-01-18T11:38:05.275Z,17.57
2019-01-18T11:40:33.560Z,17.27
2019-01-18T11:43:01.763Z,14.43
2019-01-18T11:45:29.898Z,20.30
2019-01-18T11:47:58.089Z,47.33
2019-01-18T11:50:27.909Z,81.60
2019-01-18T11:52:56.133Z,74.80
2019-01-18T11:55:24.282Z,57.87
2019-01-18T11:57:53.233Z,42.33
2019-01-18T12:00:24.498Z,37.87
2019-01-18T12:02:53.217Z,23.77
2019-01-18T12:05:21.859Z,23.13
2019-01-18T12:07:50.052Z,13.37
2019-01-18T12:10:19.349Z,16.50
2019-01-18T12:12:47.925Z,16.47
2019-01-18T12:15:16.565Z,14.53
2019-01-18T12:17:45.043Z,22.07
2019-01-18T12:20:22.440Z,20.97
2019-01-18T12:22:50.652Z,17.00
2019-01-18T12:25:19.207Z,21.10
2019-01-18T12:27:47.666Z,18.00
2019-01-18T12:30:17.343Z,17.47
2019-01-18T12:32:45.813Z,15.97
2019-01-18T12:35:13.950Z,17.53
2019-01-18T12:37:42.121Z,13.93
2019-01-18T12:40:10.264Z,13.10
2019-01-18T12:42:38.787Z,13.60
2019-01-18T12:45:08.823Z,13.10
2019-01-18T12:47:36.991Z,10.57
2019-01-18T12:50:09.579Z,11.97
2019-01-18T12:52:37.773Z,13.30
2019-01-18T12:55:07.757Z,13.90
2019-01-18T12:57:35.888Z,11.50
2019-01-18T13:00:07.447Z,12.93
2019-01-18T13:02:35.623Z,13.03
2019-01-18T13:05:05.275Z,11.60
2019-01-18T13:07:33.455Z,14.27
2019-01-18T13:10:01.926Z,11.03
2019-01-18T13:12:30.444Z,13.47
2019-01-18T13:14:58.989Z,12.30
2019-01-18T13:17:27.182Z,13.80
2019-01-18T13:19:55.349Z,11.47
2019-01-18T13:22:26.245Z,14.60
2019-01-18T13:24:55.128Z,12.10
2019-01-18T13:27:23.587Z,17.30
2019-01-18T13:29:51.736Z,56.77
2019-01-18T13:32:19.913Z,46.77
2019-01-18T13:34:48.117Z,49.27
2019-01-18T13:37:16.587Z,26.00
2019-01-18T13:39:45.038Z,24.63
2019-01-18T13:42:13.632Z,27.07
2019-01-18T13:44:43.741Z,79.33
2019-01-18T13:47:18.083Z,42.00
2019-01-18T13:49:41.927Z,56.30
2019-01-18T13:52:10.097Z,45.03
2019-01-18T13:54:38.277Z,25.00
2019-01-18T13:57:06.510Z,22.37
2019-01-18T13:59:34.979Z,19.23
2019-01-18T14:02:03.558Z,15.97
2019-01-18T14:04:31.704Z,17.37
2019-01-18T14:06:59.825Z,14.57
2019-01-18T14:09:28.009Z,28.63
2019-01-18T14:11:56.223Z,13.60
2019-01-18T14:14:24.827Z,16.57
2019-01-18T14:16:53.293Z,16.43
2019-01-18T14:19:21.789Z,19.03
2019-01-18T14:21:50.301Z,17.40
2019-01-18T14:24:18.462Z,11.37
2019-01-18T14:26:46.581Z,10.80
2019-01-18T14:29:15.106Z,11.33
2019-01-18T14:31:43.249Z,13.00
2019-01-18T14:34:12.051Z,14.63
2019-01-18T14:36:40.228Z,12.73
2019-01-18T14:39:11.476Z,12.43
2019-01-18T14:41:40.210Z,12.33
2019-01-18T14:44:08.653Z,14.23
2019-01-18T14:46:37.240Z,11.27
2019-01-18T14:49:05.353Z,9.43
2019-01-18T14:51:33.519Z,11.03
2019-01-18T14:54:01.652Z,10.00
2019-01-18T14:56:30.151Z,8.57
2019-01-18T14:58:58.630Z,9.27
2019-01-18T15:01:27.166Z,10.47
2019-01-18T15:03:55.339Z,12.70
2019-01-18T15:06:23.765Z,9.00
2019-01-18T15:08:52.247Z,9.40
2019-01-18T15:11:20.704Z,8.67
2019-01-18T15:13:49.375Z,12.33
2019-01-18T15:16:17.497Z,12.23
2019-01-18T15:18:45.635Z,14.43
2019-01-18T15:21:14.140Z,12.70
2019-01-18T15:23:42.675Z,15.03
2019-01-18T15:26:11.180Z,15.33
2019-01-18T15:28:39.647Z,12.03
2019-01-18T15:31:07.810Z,17.93
2019-01-18T15:33:35.943Z,11.20
2019-01-18T15:36:04.210Z,10.10
2019-01-18T15:38:32.388Z,12.63
2019-01-18T15:41:00.631Z,16.20
2019-01-18T15:43:29.217Z,16.30
2019-01-18T15:45:57.679Z,11.80
2019-01-18T15:48:26.184Z,11.07
2019-01-18T15:50:54.311Z,9.50
2019-01-18T15:53:22.475Z,10.67
2019-01-18T15:55:50.676Z,7.63
2019-01-18T15:58:18.848Z,7.63
2019-01-18T16:00:47.057Z,7.47
2019-01-18T16:03:16.343Z,7.23
2019-01-18T16:05:44.628Z,6.03
2019-01-18T16:08:12.819Z,7.50
2019-01-18T16:10:40.990Z,6.00
2019-01-18T16:13:09.177Z,6.83
2019-01-18T16:15:38.856Z,7.83
2019-01-18T16:18:08.891Z,6.53
2019-01-18T16:20:37.068Z,8.33
2019-01-18T16:23:05.567Z,7.47
2019-01-18T16:25:34.099Z,9.73
2019-01-18T16:28:02.933Z,8.80
2019-01-18T16:30:31.445Z,8.50
2019-01-18T16:32:59.601Z,11.50
2019-01-18T16:35:28.012Z,9.97
2019-01-18T16:37:56.146Z,10.27
2019-01-18T16:40:31.447Z,13.13
2019-01-18T16:43:09.987Z,10.83
2019-01-18T16:45:38.793Z,10.63
2019-01-18T16:48:07.266Z,12.63
2019-01-18T16:50:35.404Z,9.87
2019-01-18T16:53:04.314Z,10.10
2019-01-18T16:55:32.460Z,11.87
2019-01-18T16:58:01.003Z,9.27
2019-01-18T17:00:32.089Z,9.83
2019-01-18T17:03:00.219Z,8.83
2019-01-18T17:05:30.086Z,6.97
2019-01-18T17:07:58.301Z,7.77
2019-01-18T17:10:26.467Z,6.63
2019-01-18T17:12:55.004Z,6.80
2019-01-18T17:15:23.460Z,7.00
2019-01-18T17:17:51.947Z,9.77
2019-01-18T17:20:24.521Z,9.77
2019-01-18T17:22:53.059Z,10.17
2019-01-18T17:25:21.601Z,9.23
2019-01-18T17:27:49.751Z,9.90
2019-01-18T17:30:19.037Z,10.87
2019-01-18T17:32:47.877Z,7.80
2019-01-18T17:35:18.279Z,9.40
2019-01-18T17:37:48.103Z,7.20
2019-01-18T17:40:18.579Z,5.87
2019-01-18T17:42:51.268Z,7.27
2019-01-18T17:45:45.369Z,4.90
2019-01-18T17:48:17.233Z,4.43
2019-01-18T17:51:00.741Z,5.93
2019-01-18T17:53:42.641Z,6.13
2019-01-18T17:56:12.356Z,5.13
2019-01-18T17:58:44.701Z,5.33
2019-01-18T18:01:26.439Z,13.27
2019-01-18T18:03:56.119Z,13.43
2019-01-18T18:06:59.747Z,13.10
2019-01-18T18:09:32.345Z,10.83
2019-01-18T18:12:14.348Z,11.03
2019-01-18T18:15:14.499Z,11.20
2019-01-18T18:17:44.206Z,9.17
2019-01-18T18:20:32.093Z,9.37
2019-01-18T18:23:04.876Z,7.50
2019-01-18T18:25:51.422Z,7.13
2019-01-18T18:28:36.208Z,6.37
2019-01-18T18:31:10.461Z,7.10
2019-01-18T18:33:40.179Z,5.03
2019-01-18T18:36:26.615Z,8.23
2019-01-18T18:39:09.971Z,5.87
2019-01-18T18:41:39.638Z,7.27
2019-01-18T18:44:09.324Z,4.60
2019-01-18T18:46:39.034Z,3.90
2019-01-18T18:49:16.134Z,6.90
2019-01-18T18:51:48.703Z,6.40
2019-01-18T18:54:25.789Z,5.17
2019-01-18T18:56:55.491Z,5.37
2019-01-18T18:59:34.463Z,6.97
2019-01-18T19:02:17.694Z,6.87
2019-01-18T19:04:50.073Z,4.50
2019-01-18T19:07:28.773Z,6.33
2019-01-18T19:10:12.157Z,6.60
2019-01-18T19:12:41.813Z,6.57
2019-01-18T19:15:31.225Z,7.43
2019-01-18T19:18:17.551Z,7.23
2019-01-18T19:21:01.357Z,6.90
2019-01-18T19:23:44.787Z,7.33
2019-01-18T19:26:14.707Z,7.53
2019-01-18T19:28:59.362Z,5.30
2019-01-18T19:31:29.018Z,7.43
2019-01-18T19:34:04.410Z,6.93
2019-01-18T19:36:32.843Z,6.60
2019-01-18T19:39:19.334Z,6.47
2019-01-18T19:41:59.707Z,5.80
2019-01-18T19:44:29.659Z,7.27
2019-01-18T19:47:07.307Z,10.40
2019-01-18T19:49:39.930Z,7.60
2019-01-18T19:52:17.663Z,7.43
2019-01-18T19:54:49.207Z,6.23
2019-01-18T19:57:24.651Z,7.33
2019-01-18T20:00:11.322Z,7.17
2019-01-18T20:02:47.310Z,9.70
2019-01-18T20:05:20.125Z,7.53
2019-01-18T20:08:08.152Z,7.10
2019-01-18T20:11:03.556Z,7.57
2019-01-18T20:13:33.525Z,6.90
2019-01-18T20:16:05.865Z,8.80
2019-01-18T20:18:43.177Z,10.03
2019-01-18T20:21:15.864Z,9.23
2019-01-18T20:23:45.803Z,8.67
2019-01-18T20:26:18.158Z,9.53
2019-01-18T20:29:04.565Z,8.80
2019-01-18T20:31:36.089Z,9.40
2019-01-18T20:34:18.315Z,13.10
2019-01-18T20:36:44.772Z,9.50
2019-01-18T20:39:28.344Z,12.30
2019-01-18T20:42:01.265Z,11.70
2019-01-18T20:44:36.889Z,10.03
2019-01-18T20:47:25.838Z,10.97
2019-01-18T20:49:58.456Z,10.40
2019-01-18T20:52:44.798Z,14.40
2019-01-18T20:55:33.106Z,12.07
2019-01-18T20:58:23.967Z,12.13
2019-01-18T21:01:12.215Z,9.20
2019-01-18T21:03:50.837Z,12.93
2019-01-18T21:06:23.167Z,10.53
2019-01-18T21:08:55.792Z,11.57
2019-01-18T21:11:25.535Z,9.93
2019-01-18T21:14:01.863Z,11.63
2019-01-18T21:16:31.663Z,12.33
2019-01-18T21:19:01.356Z,11.30
2019-01-18T21:21:31.037Z,10.50
2019-01-18T21:24:00.791Z,8.73
2019-01-18T21:26:39.618Z,9.10
2019-01-18T21:29:18.367Z,11.73
2019-01-18T21:31:48.041Z,11.30
2019-01-18T21:34:33.087Z,12.83
2019-01-18T21:37:01.306Z,10.33
2019-01-18T21:40:00.271Z,12.67
2019-01-18T21:42:30.212Z,11.87
2019-01-18T21:45:17.798Z,15.30
2019-01-18T21:47:49.375Z,15.00
2019-01-18T21:50:19.118Z,12.37
2019-01-18T21:52:48.824Z,11.67
2019-01-18T21:55:22.313Z,11.43
2019-01-18T21:58:01.062Z,9.93
2019-01-18T22:00:33.437Z,8.87
2019-01-18T22:03:09.245Z,12.93
2019-01-18T22:05:41.643Z,9.83
2019-01-18T22:08:26.409Z,11.70
2019-01-18T22:11:03.667Z,13.47
2019-01-18T22:13:33.349Z,9.77
2019-01-18T22:16:11.997Z,12.13
2019-01-18T22:18:46.397Z,10.57
2019-01-18T22:21:45.109Z,8.60
2019-01-18T22:24:15.085Z,8.97
2019-01-18T22:26:47.293Z,11.67
2019-01-18T22:29:23.132Z,12.03
2019-01-18T22:31:52.852Z,8.83
2019-01-18T22:34:28.877Z,10.47
2019-01-18T22:37:01.798Z,10.80
2019-01-18T22:39:31.482Z,8.67
2019-01-18T22:42:04.021Z,9.90
2019-01-18T22:44:33.729Z,11.43
2019-01-18T22:47:03.430Z,7.90
2019-01-18T22:49:33.093Z,10.37
2019-01-18T22:52:02.782Z,7.90
2019-01-18T22:54:50.964Z,9.27
2019-01-18T22:57:41.967Z,9.00
2019-01-18T23:00:49.313Z,9.57
2019-01-18T23:03:21.920Z,11.10
2019-01-18T23:05:51.577Z,9.80
2019-01-18T23:08:30.387Z,9.27
2019-01-18T23:11:02.998Z,9.50
2019-01-18T23:13:59.757Z,11.77
2019-01-18T23:16:29.437Z,8.40
2019-01-18T23:19:12.843Z,7.97
2019-01-18T23:21:57.317Z,7.23
2019-01-18T23:24:31.623Z,7.97
2019-01-18T23:27:23.921Z,9.47
2019-01-18T23:29:56.322Z,7.93
2019-01-18T23:32:26.006Z,8.77
2019-01-18T23:35:02.755Z,7.23
2019-01-18T23:37:31.575Z,7.53
2019-01-18T23:40:03.905Z,8.00
2019-01-18T23:42:38.371Z,8.43
2019-01-18T23:45:26.224Z,9.57
2019-01-18T23:47:56.201Z,8.27
2019-01-18T23:50:25.876Z,8.13
2019-01-18T23:53:25.923Z,7.03
2019-01-18T23:56:06.356Z,7.30
2019-01-18T23:58:36.747Z,8.20
